createdAt,value
2018-06-13T00:01:54.439Z,13.81
2018-06-13T00:04:24.494Z,13.69
2018-06-13T00:06:54.631Z,13.83
2018-06-13T00:09:25.052Z,13.77
2018-06-13T00:11:54.893Z,13.79
2018-06-13T00:14:25.240Z,13.68
2018-06-13T00:16:54.741Z,13.74
2018-06-13T00:19:24.584Z,13.83
2018-06-13T00:21:55.109Z,13.81
2018-06-13T00:24:24.893Z,13.79
2018-06-13T00:26:54.731Z,13.73
2018-06-13T00:29:24.311Z,13.73
2018-06-13T00:31:53.854Z,13.71
2018-06-13T00:34:23.779Z,13.57
2018-06-13T00:36:54.611Z,13.63
2018-06-13T00:39:22.975Z,13.59
2018-06-13T00:41:51.250Z,13.49
2018-06-13T00:44:19.571Z,13.67
2018-06-13T00:46:47.879Z,13.46
2018-06-13T00:49:16.195Z,13.59
2018-06-13T00:51:44.471Z,13.52
2018-06-13T00:54:12.786Z,13.63
2018-06-13T00:56:41.166Z,13.55
2018-06-13T00:59:09.475Z,13.56
2018-06-13T01:01:37.813Z,13.43
2018-06-13T01:04:06.187Z,13.44
2018-06-13T01:06:34.472Z,13.46
2018-06-13T01:09:02.870Z,13.43
2018-06-13T01:11:31.210Z,13.42
2018-06-13T01:13:59.542Z,13.34
2018-06-13T01:16:27.859Z,13.27
2018-06-13T01:18:56.682Z,13.25
2018-06-13T01:21:25.015Z,13.36
2018-06-13T01:23:53.395Z,13.50
2018-06-13T01:26:21.819Z,13.40
2018-06-13T01:28:50.157Z,13.36
2018-06-13T01:31:18.430Z,13.45
2018-06-13T01:33:46.750Z,13.30
2018-06-13T01:36:15.807Z,13.34
2018-06-13T01:38:44.163Z,13.35
2018-06-13T01:41:12.463Z,13.36
2018-06-13T01:43:40.819Z,13.34
2018-06-13T01:46:09.107Z,13.34
2018-06-13T01:48:37.742Z,13.12
2018-06-13T01:51:06.016Z,13.17
2018-06-13T01:53:34.355Z,13.19
2018-06-13T01:56:02.625Z,13.31
2018-06-13T01:58:30.969Z,13.31
2018-06-13T02:00:59.297Z,13.21
2018-06-13T02:03:27.643Z,13.10
2018-06-13T02:05:56.054Z,13.18
2018-06-13T02:08:24.396Z,13.13
2018-06-13T02:10:52.705Z,13.16
2018-06-13T02:13:20.974Z,13.16
2018-06-13T02:15:49.610Z,13.16
2018-06-13T02:18:18.010Z,13.02
2018-06-13T02:20:46.343Z,13.08
2018-06-13T02:23:14.626Z,13.08
2018-06-13T02:25:42.982Z,12.95
2018-06-13T02:28:11.294Z,13.07
2018-06-13T02:30:39.610Z,13.04
2018-06-13T02:33:07.890Z,13.01
2018-06-13T02:35:36.186Z,13.03
2018-06-13T02:38:04.462Z,13.03
2018-06-13T02:40:32.768Z,12.93
2018-06-13T02:43:01.031Z,13.03
2018-06-13T02:45:29.330Z,13.10
2018-06-13T02:47:57.592Z,13.10
2018-06-13T02:50:25.932Z,13.03
2018-06-13T02:52:54.231Z,12.98
2018-06-13T02:55:22.602Z,13.05
2018-06-13T02:57:50.873Z,12.96
2018-06-13T03:00:19.212Z,12.97
2018-06-13T03:02:47.478Z,12.86
2018-06-13T03:05:15.807Z,12.97
2018-06-13T03:07:44.123Z,12.93
2018-06-13T03:10:12.477Z,12.98
2018-06-13T03:12:40.829Z,12.94
2018-06-13T03:15:09.151Z,12.95
2018-06-13T03:17:37.510Z,13.00
2018-06-13T03:20:05.834Z,13.08
2018-06-13T03:22:34.103Z,13.01
2018-06-13T03:25:02.423Z,13.02
2018-06-13T03:27:30.755Z,12.92
2018-06-13T03:29:59.074Z,12.86
2018-06-13T03:32:27.382Z,12.86
2018-06-13T03:34:55.737Z,12.93
2018-06-13T03:37:24.022Z,13.08
2018-06-13T03:39:52.459Z,12.92
2018-06-13T03:42:20.847Z,13.07
2018-06-13T03:44:49.226Z,13.02
2018-06-13T03:47:17.550Z,13.03
2018-06-13T03:49:45.991Z,12.88
2018-06-13T03:52:14.307Z,12.82
2018-06-13T03:54:42.611Z,12.88
2018-06-13T03:57:10.903Z,12.87
2018-06-13T03:59:39.290Z,12.91
2018-06-13T04:02:07.611Z,13.07
2018-06-13T04:04:35.896Z,12.99
2018-06-13T04:07:04.502Z,13.00
2018-06-13T04:09:32.785Z,12.87
2018-06-13T04:12:02.853Z,12.87
2018-06-13T04:14:31.146Z,12.85
2018-06-13T04:19:26.862Z,12.69
2018-06-13T04:21:55.281Z,12.75
2018-06-13T04:24:23.639Z,12.84
2018-06-13T04:26:51.951Z,12.93
2018-06-13T04:29:20.217Z,12.79
2018-06-13T04:31:48.567Z,12.80
2018-06-13T04:34:16.835Z,12.91
2018-06-13T04:36:45.184Z,12.98
2018-06-13T04:39:13.442Z,12.82
2018-06-13T04:41:41.810Z,12.89
2018-06-13T04:44:10.088Z,13.00
2018-06-13T04:46:38.429Z,13.16
2018-06-13T04:49:06.702Z,13.04
2018-06-13T04:51:36.000Z,12.87
2018-06-13T04:54:04.333Z,12.98
2018-06-13T04:56:32.641Z,12.78
2018-06-13T04:59:00.949Z,12.83
2018-06-13T05:01:29.258Z,12.77
2018-06-13T05:03:57.532Z,12.93
2018-06-13T05:06:25.910Z,12.71
2018-06-13T05:08:54.177Z,12.70
2018-06-13T05:11:23.042Z,12.54
2018-06-13T05:13:51.306Z,12.67
2018-06-13T05:16:19.663Z,12.67
2018-06-13T05:18:47.934Z,12.70
2018-06-13T05:21:17.054Z,12.70
2018-06-13T05:23:45.318Z,12.75
2018-06-13T05:26:13.655Z,12.91
2018-06-13T05:28:42.299Z,12.61
2018-06-13T05:31:10.575Z,12.63
2018-06-13T05:33:38.888Z,12.70
2018-06-13T05:36:07.203Z,12.58
2018-06-13T05:38:35.506Z,12.57
2018-06-13T05:41:03.816Z,12.55
2018-06-13T05:43:32.148Z,12.75
2018-06-13T05:46:07.236Z,12.67
2018-06-13T05:48:35.682Z,12.60
2018-06-13T05:51:04.015Z,12.46
2018-06-13T05:53:32.382Z,12.73
2018-06-13T05:56:01.387Z,12.77
2018-06-13T05:58:29.763Z,12.90
2018-06-13T06:00:58.107Z,12.74
2018-06-13T06:03:26.430Z,12.92
2018-06-13T06:05:55.039Z,12.64
2018-06-13T06:08:26.897Z,12.71
2018-06-13T06:10:55.252Z,12.56
2018-06-13T06:13:23.538Z,12.58
2018-06-13T06:15:51.926Z,12.73
2018-06-13T06:18:20.467Z,12.79
2018-06-13T06:20:48.756Z,12.89
2018-06-13T06:23:17.508Z,12.79
2018-06-13T06:25:46.191Z,12.97
2018-06-13T06:28:14.575Z,12.78
2018-06-13T06:30:42.915Z,12.73
2018-06-13T06:33:11.412Z,12.83
2018-06-13T06:35:39.676Z,12.91
2018-06-13T06:38:08.003Z,12.79
2018-06-13T06:40:36.272Z,12.80
2018-06-13T06:43:04.627Z,13.01
2018-06-13T06:45:32.996Z,12.94
2018-06-13T06:48:01.414Z,12.85
2018-06-13T06:50:29.740Z,12.81
2018-06-13T06:52:58.107Z,12.86
2018-06-13T06:55:26.542Z,12.94
2018-06-13T06:57:54.938Z,12.64
2018-06-13T07:00:23.216Z,12.67
2018-06-13T07:02:51.579Z,12.79
2018-06-13T07:05:19.866Z,12.81
2018-06-13T07:07:48.255Z,12.76
2018-06-13T07:10:16.561Z,12.84
2018-06-13T07:12:44.933Z,13.00
2018-06-13T07:15:13.230Z,12.97
2018-06-13T07:17:42.599Z,13.00
2018-06-13T07:20:10.883Z,12.78
2018-06-13T07:22:39.261Z,12.90
2018-06-13T07:25:07.538Z,12.93
2018-06-13T07:27:35.982Z,12.76
2018-06-13T07:30:04.318Z,12.84
2018-06-13T07:32:32.714Z,12.40
2018-06-13T07:35:01.098Z,12.65
2018-06-13T07:37:29.528Z,12.74
2018-06-13T07:39:57.955Z,12.86
2018-06-13T07:42:26.289Z,12.81
2018-06-13T07:44:54.671Z,12.74
2018-06-13T07:47:23.128Z,12.86
2018-06-13T07:49:51.560Z,13.31
2018-06-13T07:52:19.842Z,13.17
2018-06-13T07:54:48.658Z,13.31
2018-06-13T07:57:17.027Z,12.82
2018-06-13T07:59:45.742Z,12.79
2018-06-13T08:02:14.164Z,12.71
2018-06-13T08:04:42.510Z,13.06
2018-06-13T08:07:10.799Z,13.03
2018-06-13T08:09:39.189Z,13.43
2018-06-13T08:12:07.550Z,13.53
2018-06-13T08:14:35.918Z,13.79
2018-06-13T08:17:04.227Z,13.39
2018-06-13T08:19:32.613Z,13.73
2018-06-13T08:22:00.958Z,13.78
2018-06-13T08:24:29.791Z,13.68
2018-06-13T08:26:58.065Z,13.25
2018-06-13T08:29:26.409Z,13.58
2018-06-13T08:31:55.139Z,13.42
2018-06-13T08:34:23.526Z,13.60
2018-06-13T08:36:52.208Z,13.38
2018-06-13T08:39:20.891Z,13.36
2018-06-13T08:41:50.719Z,13.25
2018-06-13T08:44:19.444Z,13.20
2018-06-13T08:46:47.825Z,13.31
2018-06-13T08:49:16.201Z,13.12
2018-06-13T08:51:44.494Z,13.27
2018-06-13T08:54:12.817Z,13.08
2018-06-13T08:56:41.123Z,13.32
2018-06-13T08:59:09.447Z,13.44
2018-06-13T09:01:37.814Z,13.48
2018-06-13T09:04:06.249Z,13.31
2018-06-13T09:06:34.603Z,13.31
2018-06-13T09:09:02.942Z,13.41
2018-06-13T09:11:31.242Z,13.63
2018-06-13T09:13:59.577Z,13.71
2018-06-13T09:16:27.985Z,13.89
2018-06-13T09:18:56.317Z,14.11
2018-06-13T09:21:24.755Z,13.83
2018-06-13T09:23:53.050Z,13.70
2018-06-13T09:26:21.366Z,13.90
2018-06-13T09:28:49.759Z,14.02
2018-06-13T09:31:18.092Z,13.93
2018-06-13T09:33:46.463Z,13.70
2018-06-13T09:36:14.815Z,13.79
2018-06-13T09:38:44.058Z,13.94
2018-06-13T09:41:12.578Z,14.00
2018-06-13T09:43:40.856Z,14.57
2018-06-13T09:46:12.014Z,15.06
2018-06-13T09:48:37.510Z,14.89
2018-06-13T09:51:05.875Z,14.68
2018-06-13T09:53:34.271Z,15.12
2018-06-13T09:56:02.602Z,15.41
2018-06-13T09:58:35.046Z,15.51
2018-06-13T10:01:07.683Z,14.81
2018-06-13T10:03:36.310Z,14.91
2018-06-13T10:06:04.843Z,14.97
2018-06-13T10:08:33.124Z,14.65
2018-06-13T10:11:01.478Z,14.77
2018-06-13T10:13:29.814Z,14.66
2018-06-13T10:15:58.211Z,14.50
2018-06-13T10:18:27.267Z,14.43
2018-06-13T10:20:55.875Z,14.25
2018-06-13T10:23:24.145Z,14.69
2018-06-13T10:25:52.489Z,14.55
2018-06-13T10:28:20.750Z,14.61
2018-06-13T10:30:49.061Z,14.79
2018-06-13T10:33:17.329Z,14.59
2018-06-13T10:35:45.657Z,14.74
2018-06-13T10:38:13.930Z,14.65
2018-06-13T10:40:42.295Z,14.80
2018-06-13T10:43:10.656Z,14.81
2018-06-13T10:45:38.995Z,14.68
2018-06-13T10:48:07.270Z,14.41
2018-06-13T10:50:35.659Z,14.43
2018-06-13T10:53:04.935Z,14.57
2018-06-13T10:55:33.371Z,14.39
2018-06-13T10:58:01.650Z,14.14
2018-06-13T11:00:30.050Z,13.73
2018-06-13T11:02:58.440Z,13.47
2018-06-13T11:05:26.780Z,13.43
2018-06-13T11:07:55.087Z,13.72
2018-06-13T11:10:23.407Z,13.39
2018-06-13T11:12:51.802Z,13.80
2018-06-13T11:15:20.129Z,14.18
2018-06-13T11:17:48.541Z,14.31
2018-06-13T11:20:16.863Z,14.22
2018-06-13T11:22:45.568Z,14.51
2018-06-13T11:25:13.924Z,14.93
2018-06-13T11:27:42.235Z,14.64
2018-06-13T11:30:10.547Z,14.79
2018-06-13T11:32:38.930Z,15.61
2018-06-13T11:35:08.049Z,15.57
2018-06-13T11:37:37.394Z,15.34
2018-06-13T11:40:06.138Z,15.32
2018-06-13T11:42:34.681Z,15.25
2018-06-13T11:45:02.995Z,15.57
2018-06-13T11:47:31.367Z,15.37
2018-06-13T11:49:59.702Z,15.54
2018-06-13T11:52:28.022Z,15.56
2018-06-13T11:54:56.390Z,15.31
2018-06-13T11:57:24.886Z,14.98
2018-06-13T11:59:53.318Z,14.74
2018-06-13T12:02:21.712Z,15.00
2018-06-13T12:04:50.218Z,15.22
2018-06-13T12:07:18.901Z,15.39
2018-06-13T12:09:47.510Z,15.17
2018-06-13T12:12:16.103Z,15.48
2018-06-13T12:14:44.497Z,15.00
2018-06-13T12:17:12.881Z,14.66
2018-06-13T12:19:41.238Z,14.95
2018-06-13T12:22:09.594Z,15.01
2018-06-13T12:24:37.867Z,15.16
2018-06-13T12:27:06.286Z,14.91
2018-06-13T12:29:34.715Z,15.14
2018-06-13T12:32:03.067Z,15.27
2018-06-13T12:34:32.490Z,15.44
2018-06-13T12:37:00.889Z,15.71
2018-06-13T12:39:29.259Z,15.68
2018-06-13T12:41:57.566Z,15.73
2018-06-13T12:44:26.260Z,15.43
2018-06-13T12:46:54.799Z,15.72
2018-06-13T12:49:23.112Z,15.98
2018-06-13T12:51:51.598Z,16.43
2018-06-13T12:54:19.944Z,15.49
2018-06-13T12:56:48.277Z,15.98
2018-06-13T12:59:16.607Z,16.01
2018-06-13T13:01:44.932Z,16.20
2018-06-13T13:04:14.420Z,16.32
2018-06-13T13:06:42.779Z,16.17
2018-06-13T13:09:12.995Z,15.84
2018-06-13T13:11:41.646Z,16.29
2018-06-13T13:14:09.959Z,16.33
2018-06-13T13:16:38.315Z,16.32
2018-06-13T13:19:06.718Z,16.08
2018-06-13T13:21:35.066Z,15.98
2018-06-13T13:24:03.655Z,16.39
2018-06-13T13:26:31.969Z,16.19
2018-06-13T13:29:00.372Z,15.88
2018-06-13T13:31:28.778Z,15.66
2018-06-13T13:33:57.195Z,15.48
2018-06-13T13:36:25.574Z,15.26
2018-06-13T13:38:53.974Z,15.39
2018-06-13T13:41:22.300Z,15.21
2018-06-13T13:43:51.328Z,15.38
2018-06-13T13:46:19.778Z,15.04
2018-06-13T13:48:48.083Z,15.32
2018-06-13T13:51:16.529Z,15.30
2018-06-13T13:53:44.799Z,15.21
2018-06-13T13:56:13.298Z,15.32
2018-06-13T13:58:41.655Z,15.03
2018-06-13T14:01:10.016Z,15.16
2018-06-13T14:03:38.603Z,14.94
2018-06-13T14:06:06.954Z,14.95
2018-06-13T14:08:35.347Z,15.27
2018-06-13T14:11:03.687Z,15.45
2018-06-13T14:13:31.998Z,15.43
2018-06-13T14:16:00.316Z,15.35
2018-06-13T14:18:28.642Z,15.34
2018-06-13T14:20:56.913Z,15.35
2018-06-13T14:23:25.809Z,15.41
2018-06-13T14:25:54.098Z,15.36
2018-06-13T14:28:22.513Z,15.73
2018-06-13T14:30:50.799Z,15.73
2018-06-13T14:33:19.646Z,15.63
2018-06-13T14:35:48.154Z,15.29
2018-06-13T14:38:16.556Z,15.75
2018-06-13T14:40:44.960Z,15.79
2018-06-13T14:43:13.434Z,15.81
2018-06-13T14:45:41.854Z,15.90
2018-06-13T14:48:10.145Z,15.96
2018-06-13T14:50:38.564Z,15.88
2018-06-13T14:53:06.821Z,15.47
2018-06-13T14:55:41.380Z,15.25
2018-06-13T14:58:09.943Z,15.06
2018-06-13T15:00:38.286Z,15.16
2018-06-13T15:03:06.650Z,15.23
2018-06-13T15:05:35.022Z,15.05
2018-06-13T15:08:03.493Z,14.56
2018-06-13T15:10:31.798Z,14.63
2018-06-13T15:13:00.234Z,14.52
2018-06-13T15:15:28.591Z,14.30
2018-06-13T15:17:56.927Z,14.15
2018-06-13T15:20:25.311Z,14.35
2018-06-13T15:22:53.818Z,14.25
2018-06-13T15:25:22.222Z,14.33
2018-06-13T15:27:50.590Z,14.27
2018-06-13T15:30:18.898Z,14.37
2018-06-13T15:32:47.262Z,14.31
2018-06-13T15:35:15.685Z,14.33
2018-06-13T15:37:44.049Z,14.53
2018-06-13T15:40:12.373Z,14.40
2018-06-13T15:42:40.702Z,14.50
2018-06-13T15:45:09.027Z,14.44
2018-06-13T15:47:37.322Z,14.51
2018-06-13T15:50:05.690Z,14.61
2018-06-13T15:52:33.984Z,14.80
2018-06-13T15:55:02.316Z,14.77
2018-06-13T15:57:30.631Z,14.62
2018-06-13T15:59:58.989Z,14.78
2018-06-13T16:02:27.250Z,14.78
2018-06-13T16:04:55.535Z,14.76
2018-06-13T16:07:24.024Z,14.85
2018-06-13T16:09:52.339Z,15.02
2018-06-13T16:12:20.783Z,14.92
2018-06-13T16:14:49.107Z,15.13
2018-06-13T16:17:17.472Z,15.22
2018-06-13T16:19:45.814Z,15.16
2018-06-13T16:22:14.229Z,15.42
2018-06-13T16:24:42.498Z,15.26
2018-06-13T16:27:10.921Z,15.17
2018-06-13T16:29:39.440Z,14.98
2018-06-13T16:32:08.099Z,15.00
2018-06-13T16:34:36.379Z,15.34
2018-06-13T16:37:04.855Z,15.42
2018-06-13T16:39:33.203Z,15.77
2018-06-13T16:42:01.732Z,15.64
2018-06-13T16:44:30.071Z,15.53
2018-06-13T16:46:58.502Z,15.45
2018-06-13T16:49:26.787Z,15.40
2018-06-13T16:52:02.150Z,15.32
2018-06-13T16:54:42.583Z,15.13
2018-06-13T16:57:12.373Z,15.26
2018-06-13T16:59:41.656Z,15.24
2018-06-13T17:02:18.937Z,15.19
2018-06-13T17:04:48.711Z,15.06
2018-06-13T17:07:18.437Z,15.21
2018-06-13T17:09:48.169Z,15.02
2018-06-13T17:12:17.035Z,15.03
2018-06-13T17:14:45.784Z,15.12
2018-06-13T17:17:27.606Z,14.98
2018-06-13T17:20:02.814Z,15.17
2018-06-13T17:22:31.234Z,15.19
2018-06-13T17:24:59.550Z,15.31
2018-06-13T17:27:27.960Z,15.17
2018-06-13T17:29:56.657Z,14.92
2018-06-13T17:32:25.731Z,14.74
2018-06-13T17:34:58.593Z,14.92
2018-06-13T17:37:27.288Z,14.96
2018-06-13T17:39:55.614Z,14.95
2018-06-13T17:42:24.027Z,14.93
2018-06-13T17:44:52.355Z,14.90
2018-06-13T17:47:20.675Z,14.91
2018-06-13T17:49:49.062Z,14.80
2018-06-13T17:52:17.618Z,14.84
2018-06-13T17:54:46.066Z,14.89
2018-06-13T17:57:14.411Z,14.99
2018-06-13T17:59:42.689Z,14.76
2018-06-13T18:02:11.828Z,14.83
2018-06-13T18:04:41.026Z,14.65
2018-06-13T18:07:09.555Z,14.66
2018-06-13T18:09:38.037Z,14.82
2018-06-13T18:12:06.368Z,14.57
2018-06-13T18:14:34.766Z,14.65
2018-06-13T18:17:03.122Z,14.54
2018-06-13T18:19:31.833Z,14.54
2018-06-13T18:22:00.213Z,14.61
2018-06-13T18:24:32.923Z,14.60
2018-06-13T18:27:02.514Z,14.56
2018-06-13T18:29:31.571Z,14.52
2018-06-13T18:32:00.873Z,14.42
2018-06-13T18:34:29.290Z,14.32
2018-06-13T18:36:58.757Z,14.49
2018-06-13T18:39:27.109Z,14.58
2018-06-13T18:41:55.422Z,14.59
2018-06-13T18:44:23.787Z,14.68
2018-06-13T18:46:52.298Z,14.56
2018-06-13T18:49:22.167Z,14.43
2018-06-13T18:51:52.277Z,14.37
2018-06-13T18:54:20.604Z,14.37
2018-06-13T18:56:49.282Z,14.37
2018-06-13T18:59:17.591Z,14.40
2018-06-13T19:01:46.223Z,14.38
2018-06-13T19:04:14.607Z,14.38
2018-06-13T19:06:43.361Z,14.36
2018-06-13T19:09:12.195Z,14.47
2018-06-13T19:11:41.390Z,14.44
2018-06-13T19:14:10.532Z,14.49
2018-06-13T19:16:39.672Z,14.36
2018-06-13T19:19:08.479Z,14.27
2018-06-13T19:21:38.010Z,14.20
2018-06-13T19:24:06.643Z,14.10
2018-06-13T19:26:34.958Z,14.23
2018-06-13T19:29:03.314Z,14.15
2018-06-13T19:31:31.863Z,14.11
2018-06-13T19:34:00.183Z,14.04
2018-06-13T19:36:28.550Z,13.93
2018-06-13T19:38:57.009Z,13.99
2018-06-13T19:41:25.339Z,13.89
2018-06-13T19:43:56.498Z,13.80
2018-06-13T19:46:24.866Z,13.90
2018-06-13T19:48:54.319Z,13.86
2018-06-13T19:51:22.658Z,13.76
2018-06-13T19:53:56.426Z,13.78
2018-06-13T19:56:29.083Z,13.64
2018-06-13T19:58:57.643Z,13.66
2018-06-13T20:01:26.091Z,13.53
2018-06-13T20:03:59.781Z,13.60
2018-06-13T20:06:28.190Z,13.53
2018-06-13T20:08:56.513Z,13.55
2018-06-13T20:11:24.849Z,13.52
2018-06-13T20:13:58.539Z,13.47
2018-06-13T20:16:43.656Z,13.66
2018-06-13T20:19:17.391Z,13.66
2018-06-13T20:21:45.811Z,13.55
2018-06-13T20:24:14.228Z,13.47
2018-06-13T20:26:47.958Z,13.49
2018-06-13T20:29:21.802Z,13.44
2018-06-13T20:31:53.123Z,13.28
2018-06-13T20:34:21.620Z,13.25
2018-06-13T20:36:49.923Z,13.24
2018-06-13T20:39:18.812Z,13.25
2018-06-13T20:41:47.235Z,13.36
2018-06-13T20:44:15.617Z,13.39
2018-06-13T20:46:44.151Z,13.42
2018-06-13T20:49:12.470Z,13.47
2018-06-13T20:51:40.773Z,13.45
2018-06-13T20:54:09.063Z,13.49
2018-06-13T20:56:37.422Z,13.45
2018-06-13T20:59:05.895Z,13.48
2018-06-13T21:01:34.287Z,13.51
2018-06-13T21:04:02.626Z,13.62
2018-06-13T21:06:30.995Z,13.54
2018-06-13T21:08:59.286Z,13.69
2018-06-13T21:11:27.649Z,13.50
2018-06-13T21:13:55.943Z,13.53
2018-06-13T21:16:24.318Z,13.52
2018-06-13T21:18:52.628Z,13.34
2018-06-13T21:21:20.948Z,13.33
2018-06-13T21:23:49.308Z,13.45
2018-06-13T21:26:17.739Z,13.44
2018-06-13T21:28:46.057Z,13.42
2018-06-13T21:31:14.589Z,13.41
2018-06-13T21:33:42.846Z,13.36
2018-06-13T21:36:11.173Z,13.23
2018-06-13T21:38:39.540Z,13.14
2018-06-13T21:41:07.879Z,13.08
2018-06-13T21:43:36.268Z,13.06
2018-06-13T21:46:04.607Z,13.16
2018-06-13T21:48:32.963Z,13.11
2018-06-13T21:51:01.317Z,13.05
2018-06-13T21:53:29.755Z,13.05
2018-06-13T21:55:58.086Z,13.02
2018-06-13T21:58:26.404Z,12.88
2018-06-13T22:00:55.263Z,12.86
2018-06-13T22:03:23.803Z,12.93
2018-06-13T22:05:52.129Z,12.85
2018-06-13T22:08:20.407Z,12.98
2018-06-13T22:10:48.778Z,12.89
2018-06-13T22:13:17.058Z,13.01
2018-06-13T22:15:45.859Z,12.94
2018-06-13T22:18:14.210Z,13.02
2018-06-13T22:20:42.595Z,13.10
2018-06-13T22:23:10.905Z,13.04
2018-06-13T22:25:39.231Z,13.08
2018-06-13T22:28:07.524Z,12.95
2018-06-13T22:30:35.855Z,13.06
2018-06-13T22:33:04.163Z,13.11
2018-06-13T22:35:32.690Z,13.04
2018-06-13T22:38:01.007Z,13.01
2018-06-13T22:40:29.336Z,12.93
2018-06-13T22:42:57.634Z,12.85
2018-06-13T22:45:26.034Z,12.57
2018-06-13T22:47:54.338Z,12.32
2018-06-13T22:50:22.678Z,12.32
2018-06-13T22:52:51.013Z,12.13
2018-06-13T22:55:19.458Z,11.93
2018-06-13T22:57:48.161Z,11.77
2018-06-13T23:00:29.592Z,11.69
2018-06-13T23:02:57.902Z,11.65
2018-06-13T23:05:26.223Z,11.50
2018-06-13T23:07:54.929Z,11.31
2018-06-13T23:10:23.221Z,11.28
2018-06-13T23:12:51.731Z,11.07
2018-06-13T23:15:20.005Z,11.10
2018-06-13T23:17:48.332Z,10.94
2018-06-13T23:20:16.727Z,10.77
2018-06-13T23:22:45.002Z,10.88
2018-06-13T23:25:13.383Z,11.14
2018-06-13T23:27:41.771Z,11.11
2018-06-13T23:30:10.066Z,11.30
2018-06-13T23:32:38.463Z,11.20
2018-06-13T23:35:06.758Z,11.25
2018-06-13T23:37:35.079Z,11.19
2018-06-13T23:40:03.374Z,11.00
2018-06-13T23:42:31.757Z,10.78
2018-06-13T23:45:00.056Z,10.84
2018-06-13T23:47:28.570Z,10.91
2018-06-13T23:49:57.050Z,10.82
2018-06-13T23:52:25.379Z,10.81
2018-06-13T23:54:53.666Z,10.67
2018-06-13T23:57:21.982Z,10.69
2018-06-13T23:59:50.271Z,10.62
